Terminal Aerodrome Forecast
Issued by NWS

Home | Current Version | Previous Version | Text Only | Print | Product List | Glossary On
Versions: 1 2 3 4 5 6 7 8 9 10 11 12 13 14
000
FTUS42 KMLB 301700
TAFSFB
TAF
KSFB 301734Z 3018/3118 32004KT P6SM FEW050
     FM302000 11007KT P6SM SCT050 SCT250
     FM310200 VRB02KT P6SM SCT250
     FM311400 13004KT P6SM SCT025=

USA.gov is the U.S. government's official web portal to all federal, state and local government web resources and services.